Time;durP1;ratioP1;P1;durP2;ratioP2;P2;SDS_P1;SDS_P2;PMS_P1;PMS_P2;Temp;Humidity;BMP_temperature;BMP_pressure;BME280_temperature;BME280_humidity;BME280_pressure;Samples;Min_cycle;Max_cycle;Signal;HPM_P1;HPM_P2
2024/01/15 05:01:55;;;;;;;1.10;1.00;;;0.50;97.30;;;;;;5415103;23;20493;-96
2024/01/15 05:05:14;;;;;;;1.17;1.07;;;0.50;97.30;;;;;;4982435;28;20494;-93
2024/01/15 05:07:58;;;;;;;1.77;1.73;;;0.60;97.30;;;;;;4989180;28;20445;-94
2024/01/15 05:10:26;;;;;;;1.20;1.10;;;0.60;97.30;;;;;;4986504;28;20493;-93
2024/01/15 05:13:14;;;;;;;3.57;2.10;;;0.60;97.30;;;;;;4980902;28;20473;-94
2024/01/15 05:15:47;;;;;;;3.93;1.70;;;0.70;97.30;;;;;;4980050;28;20994;-93
2024/01/15 05:18:16;;;;;;;1.50;1.40;;;0.70;97.30;;;;;;4978791;28;20837;-94
2024/01/15 05:21:08;;;;;;;1.87;1.77;;;0.70;97.30;;;;;;4974801;28;20529;-95
2024/01/15 05:23:36;;;;;;;4.77;3.00;;;0.70;97.30;;;;;;4965680;28;20490;-95
2024/01/15 05:26:08;;;;;;;2.13;1.97;;;0.80;97.30;;;;;;4984820;28;20446;-94
2024/01/15 05:28:38;;;;;;;3.07;1.13;;;0.80;97.30;;;;;;4983732;28;20422;-95
2024/01/15 05:32:06;;;;;;;1.03;0.93;;;0.80;97.30;;;;;;4967993;28;20485;-94
2024/01/15 05:35:03;;;;;;;;;;;;;;;;;;;;;
2024/01/15 05:38:04;;;;;;;1.60;1.50;;;0.80;97.30;;;;;;4967017;28;21014;-94
2024/01/15 05:40:29;;;;;;;3.13;2.60;;;0.90;97.30;;;;;;4932528;23;20422;-67
2024/01/15 05:42:55;;;;;;;1.90;1.27;;;0.90;97.30;;;;;;4980678;28;20516;-67
2024/01/15 05:45:20;;;;;;;8.03;2.10;;;0.90;97.30;;;;;;4973103;28;20194;-65
2024/01/15 05:47:46;;;;;;;1.33;1.23;;;0.90;97.30;;;;;;4981423;28;20645;-70
2024/01/15 05:50:12;;;;;;;2.50;2.30;;;0.90;97.30;;;;;;4977974;28;20232;-68
2024/01/15 05:52:37;;;;;;;2.13;1.90;;;0.90;97.30;;;;;;4977324;28;20214;-66
2024/01/15 05:55:05;;;;;;;1.27;1.20;;;0.90;97.30;;;;;;4971623;28;20469;-67
2024/01/15 05:57:30;;;;;;;1.10;1.00;;;0.90;97.30;;;;;;4979627;28;20189;-67
2024/01/15 05:59:56;;;;;;;1.30;1.20;;;0.90;97.30;;;;;;4981273;28;20832;-66
2024/01/15 06:02:22;;;;;;;1.10;1.00;;;0.90;97.30;;;;;;4982245;28;20214;-66
2024/01/15 06:04:47;;;;;;;1.20;1.10;;;0.90;97.30;;;;;;4971832;28;20198;-66
2024/01/15 06:07:13;;;;;;;2.83;2.63;;;0.90;97.30;;;;;;4975639;28;20195;-67
2024/01/15 06:09:38;;;;;;;1.00;0.90;;;0.90;97.30;;;;;;4967847;28;20670;-67
2024/01/15 06:12:05;;;;;;;2.50;2.30;;;0.90;97.30;;;;;;4981097;28;20631;-69
2024/01/15 06:14:32;;;;;;;1.00;0.90;;;0.90;97.30;;;;;;4971346;28;20213;-72
2024/01/15 06:16:57;;;;;;;2.57;1.37;;;0.90;97.30;;;;;;4987286;28;21019;-65
2024/01/15 06:19:23;;;;;;;1.50;1.40;;;1.00;97.30;;;;;;4980280;28;20503;-67
2024/01/15 06:21:49;;;;;;;2.63;2.27;;;1.00;97.30;;;;;;4972588;28;20705;-68
2024/01/15 06:24:15;;;;;;;1.20;1.10;;;1.00;97.30;;;;;;4971297;28;20472;-69
2024/01/15 06:26:41;;;;;;;1.20;1.10;;;0.90;97.30;;;;;;4970224;28;20179;-69
2024/01/15 06:29:06;;;;;;;2.00;1.87;;;0.90;97.30;;;;;;4973196;28;20432;-67
2024/01/15 06:31:32;;;;;;;1.30;1.20;;;0.90;97.30;;;;;;4971622;28;20211;-66
2024/01/15 06:33:57;;;;;;;1.10;1.00;;;0.90;97.30;;;;;;4972964;28;20182;-67
2024/01/15 06:36:23;;;;;;;1.10;0.90;;;0.90;97.30;;;;;;4978248;28;20187;-70
2024/01/15 06:38:48;;;;;;;1.57;1.47;;;0.90;97.30;;;;;;4970978;28;20187;-69
2024/01/15 06:41:14;;;;;;;1.37;1.20;;;0.90;97.30;;;;;;4971149;28;20777;-70
2024/01/15 06:43:40;;;;;;;2.67;1.53;;;0.90;97.30;;;;;;4971683;28;20639;-71
2024/01/15 06:46:05;;;;;;;1.10;1.00;;;0.90;97.30;;;;;;4971543;28;20418;-68
2024/01/15 06:48:31;;;;;;;1.00;0.90;;;0.90;97.30;;;;;;4971026;28;20628;-68
2024/01/15 06:50:56;;;;;;;1.20;1.10;;;0.90;97.30;;;;;;4961693;28;20210;-68
2024/01/15 06:53:22;;;;;;;1.20;1.10;;;0.90;97.30;;;;;;4966557;28;20245;-69
2024/01/15 06:55:49;;;;;;;2.13;1.97;;;0.90;97.30;;;;;;4967470;28;20186;-67
2024/01/15 06:58:14;;;;;;;2.13;1.97;;;0.90;97.30;;;;;;4968423;28;20265;-68
2024/01/15 07:00:40;;;;;;;1.00;0.90;;;0.90;97.30;;;;;;4967080;28;20565;-69
2024/01/15 07:03:06;;;;;;;1.40;1.30;;;0.90;97.30;;;;;;4967217;28;20179;-68
2024/01/15 07:05:32;;;;;;;3.13;2.60;;;0.90;97.30;;;;;;4970524;28;20182;-68
2024/01/15 07:07:57;;;;;;;2.90;1.43;;;0.90;97.30;;;;;;4970116;28;20278;-68
2024/01/15 07:10:23;;;;;;;1.30;1.20;;;0.90;97.30;;;;;;4971122;28;20187;-70
2024/01/15 07:12:48;;;;;;;2.23;2.03;;;0.90;97.30;;;;;;4970780;28;20234;-71
2024/01/15 07:15:15;;;;;;;2.13;1.90;;;0.90;97.30;;;;;;4969777;28;20266;-69
2024/01/15 07:17:42;;;;;;;2.80;2.60;;;0.90;97.30;;;;;;4971199;28;20609;-71
2024/01/15 07:20:09;;;;;;;2.23;2.07;;;0.90;97.30;;;;;;4969791;28;20480;-69
2024/01/15 07:22:36;;;;;;;4.90;2.13;;;0.80;97.30;;;;;;4971128;28;20425;-69
2024/01/15 07:25:01;;;;;;;2.20;1.73;;;0.90;97.30;;;;;;4969589;28;20425;-69
2024/01/15 07:27:27;;;;;;;1.10;1.00;;;0.90;97.30;;;;;;4969325;28;20441;-69
2024/01/15 07:29:52;;;;;;;1.20;1.10;;;0.90;97.30;;;;;;4970405;28;20233;-66
2024/01/15 07:32:20;;;;;;;1.10;1.00;;;0.90;97.30;;;;;;4969408;28;20264;-67
2024/01/15 07:34:46;;;;;;;2.30;2.10;;;0.90;97.30;;;;;;4969618;28;20313;-70
2024/01/15 07:37:11;;;;;;;1.53;1.43;;;0.90;97.30;;;;;;4970733;28;20500;-70
2024/01/15 07:39:38;;;;;;;2.13;1.97;;;0.90;97.30;;;;;;4969695;28;20265;-69
2024/01/15 07:42:03;;;;;;;4.53;1.93;;;0.90;97.30;;;;;;4968841;28;20473;-74
2024/01/15 07:44:29;;;;;;;1.47;1.37;;;0.90;97.30;;;;;;4969882;28;20424;-73
2024/01/15 07:46:54;;;;;;;0.90;0.80;;;0.90;97.30;;;;;;4971104;28;20661;-69
2024/01/15 07:49:20;;;;;;;1.53;1.43;;;0.90;97.30;;;;;;4970058;28;20182;-71
2024/01/15 07:51:45;;;;;;;2.30;2.10;;;0.80;97.30;;;;;;4969276;28;20233;-69
2024/01/15 07:54:11;;;;;;;8.33;1.67;;;0.80;97.30;;;;;;4969098;28;20178;-67
2024/01/15 07:57:15;;;;;;;1.13;1.03;;;0.90;97.30;;;;;;4968692;28;20641;-67
2024/01/15 07:59:41;;;;;;;2.80;2.60;;;0.90;97.30;;;;;;4924903;29;20266;-70
2024/01/15 08:02:06;;;;;;;1.10;1.00;;;0.90;97.30;;;;;;4920758;29;20527;-69
2024/01/15 08:04:32;;;;;;;4.80;3.23;;;0.80;97.30;;;;;;4934682;28;20194;-68
2024/01/15 08:06:58;;;;;;;3.90;1.67;;;0.90;97.30;;;;;;4969222;28;20187;-74
2024/01/15 08:09:23;;;;;;;1.80;1.70;;;0.90;97.30;;;;;;4969384;28;20182;-67
2024/01/15 08:11:49;;;;;;;1.53;1.43;;;1.00;97.30;;;;;;4970252;28;20788;-75
2024/01/15 08:14:15;;;;;;;1.13;1.03;;;1.10;97.30;;;;;;4969221;28;20225;-69
2024/01/15 08:16:41;;;;;;;3.57;2.70;;;1.10;97.30;;;;;;4967980;28;20193;-75
2024/01/15 08:19:07;;;;;;;1.57;1.47;;;1.10;97.30;;;;;;4969625;28;20178;-68
2024/01/15 08:21:34;;;;;;;1.27;1.17;;;1.20;97.30;;;;;;4967540;28;20778;-72
2024/01/15 08:24:00;;;;;;;0.90;0.80;;;1.20;97.30;;;;;;4977749;28;20445;-72
2024/01/15 08:26:33;;;;;;;1.50;1.40;;;1.20;97.30;;;;;;4969803;28;20876;-68
2024/01/15 08:28:59;;;;;;;1.10;1.00;;;1.10;97.30;;;;;;4968162;28;20886;-72
2024/01/15 08:31:24;;;;;;;1.10;1.00;;;1.10;97.30;;;;;;4968945;28;20907;-69
2024/01/15 08:33:50;;;;;;;1.27;1.17;;;1.10;97.30;;;;;;4968468;28;20179;-67
2024/01/15 08:36:16;;;;;;;1.50;1.40;;;1.20;97.30;;;;;;4968095;28;20182;-72
2024/01/15 08:38:42;;;;;;;2.80;2.10;;;1.30;97.30;;;;;;4974505;28;20178;-70
2024/01/15 08:41:08;;;;;;;1.07;0.97;;;1.30;97.30;;;;;;4969888;28;20222;-67
2024/01/15 08:43:36;;;;;;;6.63;1.83;;;1.30;97.30;;;;;;4971742;28;20710;-69
2024/01/15 08:46:03;;;;;;;1.40;1.30;;;1.30;97.30;;;;;;4975444;28;21078;-67
2024/01/15 08:48:29;;;;;;;0.97;0.87;;;1.30;97.30;;;;;;4974809;28;20509;-71
2024/01/15 08:50:55;;;;;;;1.47;1.10;;;1.30;97.30;;;;;;4973184;28;20445;-69
2024/01/15 08:53:21;;;;;;;2.00;1.90;;;1.30;97.30;;;;;;4968518;28;20728;-69
2024/01/15 08:55:46;;;;;;;1.00;0.90;;;1.30;97.30;;;;;;4966084;28;20410;-69
2024/01/15 08:58:13;;;;;;;1.87;1.77;;;1.30;97.30;;;;;;4978449;28;20417;-70
2024/01/15 09:00:38;;;;;;;1.30;1.20;;;1.40;97.30;;;;;;4989016;28;20190;-70
2024/01/15 09:03:04;;;;;;;2.57;2.37;;;1.50;97.30;;;;;;4977110;28;20425;-66
2024/01/15 09:05:30;;;;;;;2.40;1.87;;;1.60;97.30;;;;;;4972331;28;20514;-68
2024/01/15 09:07:56;;;;;;;1.37;1.20;;;1.80;97.30;;;;;;4970800;28;20795;-67
2024/01/15 09:10:23;;;;;;;1.33;1.23;;;1.90;97.30;;;;;;4971251;28;20193;-72
2024/01/15 09:12:49;;;;;;;1.23;1.13;;;1.90;97.30;;;;;;4979022;28;20511;-67
2024/01/15 09:15:15;;;;;;;1.73;1.60;;;1.80;97.30;;;;;;4969866;28;20433;-68
2024/01/15 09:17:40;;;;;;;2.80;2.60;;;1.70;97.30;;;;;;4978102;28;20748;-67
2024/01/15 09:20:07;;;;;;;1.10;1.00;;;1.70;97.30;;;;;;4969306;28;20178;-67
2024/01/15 09:22:32;;;;;;;4.50;3.10;;;1.70;97.30;;;;;;4975971;28;20229;-69
2024/01/15 09:24:58;;;;;;;1.17;1.07;;;1.70;97.30;;;;;;4976484;28;20428;-67
2024/01/15 09:27:26;;;;;;;1.73;1.10;;;1.70;97.30;;;;;;4980491;28;20188;-66
2024/01/15 09:29:52;;;;;;;3.07;1.73;;;1.70;97.30;;;;;;4981386;28;20272;-66
2024/01/15 09:32:18;;;;;;;1.07;0.97;;;1.70;97.30;;;;;;4972535;28;20462;-67
2024/01/15 09:34:43;;;;;;;10.50;1.33;;;1.70;97.30;;;;;;4972183;28;20495;-67
2024/01/15 09:37:09;;;;;;;2.53;2.33;;;1.70;97.30;;;;;;4980602;28;20468;-65
2024/01/15 09:39:35;;;;;;;1.07;1.00;;;1.70;97.30;;;;;;4977996;28;20642;-66
2024/01/15 09:42:01;;;;;;;0.90;0.80;;;1.80;97.30;;;;;;4971375;28;20592;-67
2024/01/15 09:44:28;;;;;;;3.00;1.93;;;2.00;97.30;;;;;;4973050;28;20201;-66
2024/01/15 09:46:55;;;;;;;1.83;1.73;;;2.10;97.30;;;;;;4987260;28;20450;-65
2024/01/15 09:49:21;;;;;;;1.40;1.30;;;2.20;97.30;;;;;;4974445;28;20421;-67
2024/01/15 09:51:47;;;;;;;4.73;2.33;;;2.20;97.30;;;;;;4977115;28;20479;-64
2024/01/15 09:54:16;;;;;;;1.50;1.40;;;2.10;97.30;;;;;;4981164;28;20568;-66
2024/01/15 09:56:46;;;;;;;1.73;1.47;;;2.10;97.30;;;;;;4978664;28;20909;-66
2024/01/15 09:59:15;;;;;;;1.60;1.50;;;2.30;97.30;;;;;;4989162;28;20495;-65
2024/01/15 10:01:43;;;;;;;8.73;3.80;;;2.50;97.30;;;;;;4984173;28;20504;-72
2024/01/15 10:04:13;;;;;;;2.60;2.40;;;2.40;97.30;;;;;;4978717;28;20446;-70
2024/01/15 10:06:43;;;;;;;2.80;2.63;;;2.30;97.30;;;;;;4969365;28;20481;-67
2024/01/15 10:09:09;;;;;;;4.37;2.53;;;2.30;97.30;;;;;;4986555;28;20471;-66
2024/01/15 10:11:34;;;;;;;2.47;2.27;;;2.20;97.30;;;;;;4978682;28;20756;-68
2024/01/15 10:14:01;;;;;;;1.80;1.80;;;2.10;97.30;;;;;;4970806;28;20178;-67
2024/01/15 10:16:26;;;;;;;1.00;0.90;;;2.00;97.30;;;;;;4976265;28;20197;-67
2024/01/15 10:18:52;;;;;;;1.87;1.77;;;1.90;97.30;;;;;;4975388;28;20417;-69
2024/01/15 10:21:17;;;;;;;1.70;1.60;;;1.90;97.30;;;;;;4980584;28;20268;-68
2024/01/15 10:23:44;;;;;;;1.83;1.73;;;2.00;97.30;;;;;;4976876;28;20653;-66
2024/01/15 10:26:11;;;;;;;1.20;1.10;;;2.10;97.30;;;;;;4974759;28;20229;-69
2024/01/15 10:28:37;;;;;;;1.33;1.23;;;2.10;97.30;;;;;;4973944;28;20545;-71
2024/01/15 10:31:03;;;;;;;0.90;0.80;;;2.10;97.30;;;;;;4968513;28;20981;-68
2024/01/15 10:33:28;;;;;;;1.40;1.30;;;2.10;97.30;;;;;;4970553;28;20745;-70
2024/01/15 10:35:55;;;;;;;3.23;3.00;;;2.10;97.30;;;;;;4975722;28;20572;-67
2024/01/15 10:38:22;;;;;;;8.73;2.27;;;2.10;97.30;;;;;;4977354;28;20207;-66
2024/01/15 10:40:51;;;;;;;1.33;1.23;;;2.20;97.30;;;;;;4971387;28;20470;-78
2024/01/15 10:43:17;;;;;;;0.90;0.80;;;2.20;97.30;;;;;;4977865;28;20812;-67
2024/01/15 10:45:48;;;;;;;1.37;1.27;;;2.20;97.30;;;;;;4975183;28;20421;-70
2024/01/15 10:48:14;;;;;;;2.27;2.07;;;2.20;97.30;;;;;;4979622;28;20438;-68
2024/01/15 10:50:40;;;;;;;2.73;2.07;;;2.10;97.30;;;;;;4985081;28;20472;-68
2024/01/15 10:53:08;;;;;;;1.40;1.30;;;2.00;97.30;;;;;;4986673;28;20828;-68
2024/01/15 10:55:34;;;;;;;14.37;1.70;;;2.00;97.30;;;;;;4982227;28;20432;-67
2024/01/15 10:58:01;;;;;;;1.27;1.17;;;2.10;97.30;;;;;;4980032;28;20594;-66
2024/01/15 11:00:27;;;;;;;7.57;2.17;;;2.00;97.30;;;;;;4988433;28;20468;-71
2024/01/15 11:02:56;;;;;;;5.43;4.67;;;2.00;97.30;;;;;;4988670;28;20548;-68
2024/01/15 11:05:22;;;;;;;3.73;3.53;;;2.00;97.30;;;;;;4977394;28;20430;-71
2024/01/15 11:07:50;;;;;;;2.67;2.00;;;2.10;97.30;;;;;;4971907;28;20434;-67
2024/01/15 11:10:42;;;;;;;1.53;1.43;;;2.10;97.30;;;;;;4970109;28;21106;-69
2024/01/15 11:13:40;;;;;;;1.80;1.43;;;2.20;97.30;;;;;;4977052;28;20474;-66
2024/01/15 11:16:07;;;;;;;2.07;1.93;;;2.20;97.30;;;;;;4985217;28;20448;-66
2024/01/15 11:18:41;;;;;;;1.53;1.43;;;2.20;97.30;;;;;;4978106;28;20796;-67
2024/01/15 11:21:16;;;;;;;1.40;1.30;;;2.20;97.30;;;;;;4976107;28;20460;-65
2024/01/15 11:23:48;;;;;;;2.00;1.87;;;2.30;97.30;;;;;;4976671;28;20432;-71
2024/01/15 11:26:34;;;;;;;1.17;1.07;;;2.30;97.30;;;;;;4982948;28;20444;-67
2024/01/15 11:29:05;;;;;;;0.90;0.80;;;2.40;97.30;;;;;;4969329;28;20433;-70
2024/01/15 11:31:40;;;;;;;1.47;1.40;;;2.30;97.30;;;;;;4968266;28;20450;-73
2024/01/15 11:34:09;;;;;;;2.90;1.27;;;2.30;97.30;;;;;;4969089;28;20720;-66
2024/01/15 11:36:53;;;;;;;3.30;1.30;;;2.30;97.30;;;;;;4970672;28;20429;-68
2024/01/15 11:39:28;;;;;;;3.13;1.37;;;2.20;97.30;;;;;;4970300;28;21009;-66
2024/01/15 11:42:04;;;;;;;1.40;1.30;;;2.20;97.30;;;;;;4972675;28;20514;-67
2024/01/15 11:44:30;;;;;;;1.27;1.17;;;2.30;97.30;;;;;;4968431;28;20432;-64
2024/01/15 11:47:03;;;;;;;1.20;1.10;;;2.40;97.30;;;;;;4970909;28;20430;-65
2024/01/15 11:49:47;;;;;;;2.63;1.63;;;2.40;97.30;;;;;;4969828;28;20831;-66
2024/01/15 11:52:17;;;;;;;1.80;1.67;;;2.30;97.30;;;;;;4968492;28;20505;-65
2024/01/15 11:54:52;;;;;;;2.50;2.40;;;2.30;97.30;;;;;;4967383;28;20429;-65
2024/01/15 11:57:27;;;;;;;1.50;1.40;;;2.30;97.30;;;;;;4968628;28;20437;-68
2024/01/15 11:59:58;;;;;;;4.63;1.73;;;2.30;97.30;;;;;;4992145;23;20489;-88
2024/01/15 12:02:27;;;;;;;1.63;1.53;;;2.30;97.30;;;;;;4975591;28;20461;-88
2024/01/15 12:05:06;;;;;;;3.83;3.30;;;2.40;97.30;;;;;;4969863;28;20458;-89
2024/01/15 12:07:57;;;;;;;2.40;2.20;;;2.60;97.30;;;;;;4979011;28;20415;-88
2024/01/15 12:10:29;;;;;;;1.83;1.73;;;2.70;97.30;;;;;;4967507;28;20449;-89
2024/01/15 12:13:22;;;;;;;1.20;1.10;;;2.70;97.30;;;;;;4981419;28;20456;-89
2024/01/15 12:15:48;;;;;;;2.37;2.17;;;2.80;97.30;;;;;;4967307;28;20417;-88
2024/01/15 12:18:16;;;;;;;1.20;1.10;;;2.80;97.30;;;;;;4970976;28;20565;-89
2024/01/15 12:20:43;;;;;;;2.50;2.30;;;2.80;97.30;;;;;;4981559;28;20445;-89
2024/01/15 12:23:09;;;;;;;1.57;1.20;;;2.70;97.30;;;;;;4972756;28;20481;-89
2024/01/15 12:25:35;;;;;;;4.37;1.73;;;2.80;97.30;;;;;;4970831;28;20960;-88
2024/01/15 12:28:01;;;;;;;1.10;1.10;;;2.80;97.30;;;;;;4974205;28;20557;-88
2024/01/15 12:30:28;;;;;;;2.60;2.40;;;2.60;97.30;;;;;;4972799;28;20446;-86
2024/01/15 12:32:54;;;;;;;1.73;1.63;;;2.60;97.30;;;;;;4977711;28;20199;-88
2024/01/15 12:35:19;;;;;;;1.30;1.20;;;2.60;97.30;;;;;;4980882;28;20936;-89
2024/01/15 12:37:48;;;;;;;8.03;1.60;;;2.60;97.30;;;;;;4981324;28;20506;-88
2024/01/15 12:40:19;;;;;;;1.97;1.87;;;2.60;97.30;;;;;;4967116;28;20198;-87
2024/01/15 12:42:44;;;;;;;1.60;1.50;;;2.60;97.30;;;;;;4971281;28;20810;-86
2024/01/15 12:45:12;;;;;;;1.10;1.00;;;2.60;97.30;;;;;;4969594;28;20438;-86
2024/01/15 12:47:38;;;;;;;0.90;0.80;;;2.70;97.30;;;;;;4971945;28;20190;-86
2024/01/15 12:50:08;;;;;;;1.20;1.10;;;2.90;97.30;;;;;;4975358;28;20533;-86
2024/01/15 12:52:34;;;;;;;2.30;1.93;;;2.90;97.30;;;;;;4969243;28;20501;-86
2024/01/15 12:55:00;;;;;;;3.77;1.93;;;2.90;97.30;;;;;;4972352;28;20415;-85
2024/01/15 12:57:25;;;;;;;1.20;1.10;;;2.90;97.30;;;;;;4973124;28;20679;-86
2024/01/15 12:59:53;;;;;;;0.90;0.80;;;2.90;97.30;;;;;;4970108;28;20222;-86
2024/01/15 13:02:19;;;;;;;7.60;1.20;;;2.80;97.30;;;;;;4971148;28;20191;-87
2024/01/15 13:04:45;;;;;;;1.10;1.00;;;2.80;97.30;;;;;;4966249;28;20442;-86
2024/01/15 13:07:10;;;;;;;3.50;1.30;;;2.80;97.30;;;;;;4965126;28;20190;-86
2024/01/15 13:09:36;;;;;;;7.03;2.00;;;2.80;97.30;;;;;;4969952;28;20701;-85
2024/01/15 13:12:02;;;;;;;1.00;0.90;;;2.80;97.30;;;;;;4973100;28;20210;-84
2024/01/15 13:14:28;;;;;;;1.93;1.73;;;2.80;97.30;;;;;;4973569;28;20186;-87
2024/01/15 13:16:54;;;;;;;1.60;1.50;;;2.80;97.30;;;;;;4973456;28;20959;-88
2024/01/15 13:19:23;;;;;;;7.93;1.83;;;2.80;97.30;;;;;;4970094;28;20974;-86
2024/01/15 13:21:53;;;;;;;3.93;1.40;;;2.70;97.30;;;;;;4971530;28;20182;-87
2024/01/15 13:24:19;;;;;;;1.00;0.90;;;2.70;97.30;;;;;;4968351;28;20528;-84
2024/01/15 13:26:45;;;;;;;1.80;1.80;;;2.70;97.30;;;;;;4967857;28;20422;-88
2024/01/15 13:29:11;;;;;;;1.10;1.00;;;2.60;97.30;;;;;;4968400;28;20450;-88
2024/01/15 13:31:38;;;;;;;0.97;0.87;;;2.60;97.30;;;;;;4969298;28;20430;-87
2024/01/15 13:34:04;;;;;;;0.90;0.80;;;2.60;97.30;;;;;;4969399;28;20429;-87
2024/01/15 13:36:29;;;;;;;5.00;1.83;;;2.50;97.30;;;;;;4969906;28;21105;-88
2024/01/15 13:38:55;;;;;;;1.37;1.27;;;2.50;97.30;;;;;;4969437;28;20429;-88
2024/01/15 13:41:27;;;;;;;1.53;1.43;;;2.50;97.30;;;;;;4969455;28;20217;-88
2024/01/15 13:43:54;;;;;;;5.77;1.60;;;2.50;97.30;;;;;;4970016;28;20202;-87
2024/01/15 13:46:24;;;;;;;1.90;1.77;;;2.50;97.30;;;;;;4970998;28;20817;-88
2024/01/15 13:48:50;;;;;;;1.47;1.30;;;2.40;97.30;;;;;;4969724;28;20479;-87
2024/01/15 13:51:15;;;;;;;2.40;1.63;;;2.40;97.30;;;;;;4969693;28;20414;-88
2024/01/15 13:53:41;;;;;;;1.20;1.10;;;2.40;97.30;;;;;;4969714;28;20202;-88
2024/01/15 13:56:07;;;;;;;1.10;1.00;;;2.40;97.30;;;;;;4956808;28;20229;-88
2024/01/15 13:58:33;;;;;;;4.80;2.87;;;2.40;97.30;;;;;;4978702;28;20183;-86
2024/01/15 14:01:00;;;;;;;1.60;1.50;;;2.40;97.30;;;;;;4973347;28;20844;-87
2024/01/15 14:03:25;;;;;;;2.53;1.90;;;2.40;97.30;;;;;;4980499;28;20449;-88
2024/01/15 14:05:51;;;;;;;2.13;1.60;;;2.40;97.30;;;;;;4985071;28;20483;-86
2024/01/15 14:08:17;;;;;;;1.37;1.27;;;2.50;97.30;;;;;;4974675;28;20201;-86
2024/01/15 14:10:43;;;;;;;1.27;1.17;;;2.50;97.30;;;;;;4973275;28;20434;-88
2024/01/15 14:13:08;;;;;;;1.10;1.00;;;2.50;97.30;;;;;;4973548;28;20587;-88
2024/01/15 14:15:34;;;;;;;0.90;0.80;;;2.50;97.30;;;;;;4973944;28;20209;-89
2024/01/15 14:18:00;;;;;;;1.80;1.70;;;2.50;97.30;;;;;;4973724;28;20175;-87
2024/01/15 14:20:26;;;;;;;1.10;1.00;;;2.50;97.30;;;;;;4973268;28;20194;-87
2024/01/15 14:22:52;;;;;;;5.50;1.73;;;2.40;97.30;;;;;;4973395;28;20414;-88
2024/01/15 14:25:17;;;;;;;1.90;1.13;;;2.40;97.30;;;;;;4972894;28;20653;-88
2024/01/15 14:27:42;;;;;;;1.40;1.33;;;2.40;97.30;;;;;;4974184;28;20175;-88
2024/01/15 14:30:08;;;;;;;2.30;0.90;;;2.40;97.30;;;;;;4972989;28;20226;-88
2024/01/15 14:32:34;;;;;;;1.00;0.90;;;2.40;97.30;;;;;;4973800;28;20210;-87
2024/01/15 14:35:00;;;;;;;2.90;1.67;;;2.40;97.30;;;;;;4974811;28;20221;-87
2024/01/15 14:37:25;;;;;;;0.90;0.80;;;2.40;97.30;;;;;;4972564;28;20277;-87
2024/01/15 14:39:52;;;;;;;3.60;1.67;;;2.40;97.30;;;;;;4973142;28;20194;-87
2024/01/15 14:42:17;;;;;;;1.37;1.27;;;2.40;97.30;;;;;;4974491;28;20189;-87
2024/01/15 14:44:43;;;;;;;1.33;1.23;;;2.30;97.30;;;;;;4973472;28;20422;-88
2024/01/15 14:47:08;;;;;;;1.00;0.90;;;2.30;97.30;;;;;;4978921;28;20166;-88
2024/01/15 14:49:34;;;;;;;1.20;1.10;;;2.30;97.30;;;;;;4973154;28;20362;-88
2024/01/15 14:52:00;;;;;;;1.20;1.10;;;2.30;97.30;;;;;;4973616;28;20268;-89
2024/01/15 14:54:25;;;;;;;1.23;1.13;;;2.30;97.30;;;;;;4973344;28;20418;-87
2024/01/15 14:56:51;;;;;;;1.53;1.43;;;2.20;97.30;;;;;;4972745;28;20261;-87
2024/01/15 14:59:17;;;;;;;1.20;1.10;;;2.20;97.30;;;;;;4972082;28;20284;-88
2024/01/15 15:01:42;;;;;;;1.00;0.90;;;2.20;97.30;;;;;;4972912;28;20182;-86
2024/01/15 15:04:08;;;;;;;2.40;1.10;;;2.20;97.30;;;;;;4972196;28;20175;-87
2024/01/15 15:06:33;;;;;;;1.17;1.07;;;2.20;97.30;;;;;;4973970;28;20179;-87
2024/01/15 15:08:59;;;;;;;1.53;1.50;;;2.20;97.30;;;;;;4977826;28;20178;-87
2024/01/15 15:11:26;;;;;;;1.50;1.40;;;2.20;97.30;;;;;;4980015;28;20181;-88
2024/01/15 15:13:51;;;;;;;1.67;1.57;;;2.10;97.30;;;;;;4970283;28;20264;-88
2024/01/15 15:16:17;;;;;;;4.27;1.83;;;2.10;97.30;;;;;;4978337;28;20430;-88
2024/01/15 15:18:43;;;;;;;7.50;2.23;;;2.10;97.30;;;;;;4969333;28;20334;-88
2024/01/15 15:21:12;;;;;;;1.20;1.10;;;2.10;97.30;;;;;;4969586;28;20234;-87
2024/01/15 15:23:39;;;;;;;1.80;1.70;;;2.10;97.30;;;;;;4972193;28;20428;-89
2024/01/15 15:26:04;;;;;;;1.77;1.67;;;2.10;97.30;;;;;;4971084;28;20430;-88
2024/01/15 15:28:30;;;;;;;2.60;2.40;;;2.10;97.30;;;;;;4970406;28;20472;-87
2024/01/15 15:30:56;;;;;;;5.53;2.93;;;2.00;97.30;;;;;;4971471;28;20578;-87
2024/01/15 15:33:22;;;;;;;1.10;1.00;;;2.00;97.30;;;;;;4971160;28;20458;-87
2024/01/15 15:35:50;;;;;;;1.53;1.43;;;2.00;97.30;;;;;;4969299;28;20473;-87
2024/01/15 15:38:16;;;;;;;1.57;1.30;;;2.00;97.30;;;;;;4965838;28;20225;-88
2024/01/15 15:40:42;;;;;;;1.60;1.50;;;2.00;97.30;;;;;;4969137;28;20485;-87
2024/01/15 15:43:07;;;;;;;1.00;0.90;;;1.90;97.30;;;;;;4969850;28;20179;-87
2024/01/15 15:45:33;;;;;;;2.10;1.97;;;2.00;97.30;;;;;;4977071;28;20186;-88
2024/01/15 15:47:58;;;;;;;1.00;0.90;;;1.90;97.30;;;;;;4970307;28;20189;-87
2024/01/15 15:50:24;;;;;;;1.33;1.23;;;1.90;97.30;;;;;;4969514;28;20206;-88
2024/01/15 15:52:49;;;;;;;1.30;1.00;;;1.90;97.30;;;;;;4970379;28;20684;-86
2024/01/15 15:55:15;;;;;;;1.60;1.50;;;1.90;97.30;;;;;;4972317;28;20218;-87
2024/01/15 15:57:40;;;;;;;1.17;1.07;;;1.90;97.30;;;;;;4971867;28;20257;-87
2024/01/15 16:00:06;;;;;;;5.90;2.43;;;1.90;97.30;;;;;;4971215;28;20230;-88
2024/01/15 16:02:32;;;;;;;1.30;1.20;;;1.90;97.30;;;;;;4971600;28;20182;-87
2024/01/15 16:04:57;;;;;;;1.23;1.13;;;1.90;97.30;;;;;;4972558;28;20517;-86
2024/01/15 16:07:28;;;;;;;3.00;2.13;;;1.90;97.30;;;;;;4976164;28;20281;-86
2024/01/15 16:09:54;;;;;;;0.90;0.80;;;1.90;97.30;;;;;;4972617;28;20700;-87
2024/01/15 16:12:20;;;;;;;1.00;0.90;;;1.80;97.30;;;;;;4972322;28;20457;-88
2024/01/15 16:14:45;;;;;;;1.43;1.33;;;1.80;97.30;;;;;;4974331;28;21088;-86
2024/01/15 16:17:11;;;;;;;1.63;1.53;;;1.80;97.30;;;;;;4968743;28;20175;-87
2024/01/15 16:19:36;;;;;;;3.33;2.80;;;1.80;97.30;;;;;;4968844;28;20229;-87
2024/01/15 16:22:03;;;;;;;2.23;2.03;;;1.80;97.30;;;;;;4970230;28;20183;-87
2024/01/15 16:24:29;;;;;;;1.33;1.23;;;1.80;97.30;;;;;;4971879;28;20190;-87
2024/01/15 16:26:55;;;;;;;3.47;2.30;;;1.80;97.30;;;;;;4971140;28;20426;-88
2024/01/15 16:29:20;;;;;;;1.30;1.20;;;1.80;97.30;;;;;;4970590;28;20207;-87
2024/01/15 16:31:46;;;;;;;1.60;1.50;;;1.80;97.30;;;;;;4970545;28;20193;-88
2024/01/15 16:34:11;;;;;;;1.60;1.50;;;1.80;97.30;;;;;;4970643;28;20179;-88
2024/01/15 16:36:36;;;;;;;3.43;2.53;;;1.70;97.30;;;;;;4970376;28;20190;-88
2024/01/15 16:39:02;;;;;;;1.27;1.17;;;1.70;97.30;;;;;;4970512;28;20189;-87
2024/01/15 16:41:28;;;;;;;2.30;1.40;;;1.70;97.30;;;;;;4970284;28;20305;-86
2024/01/15 16:43:54;;;;;;;3.00;2.40;;;1.70;97.30;;;;;;4971728;28;20516;-87
2024/01/15 16:46:19;;;;;;;1.20;1.10;;;1.70;97.30;;;;;;4986240;28;20648;-88
2024/01/15 16:48:45;;;;;;;1.10;1.00;;;1.70;97.30;;;;;;4971762;28;20182;-87
2024/01/15 16:51:12;;;;;;;2.53;1.63;;;1.70;97.30;;;;;;4970721;28;20685;-87
2024/01/15 16:53:37;;;;;;;5.13;1.43;;;1.70;97.30;;;;;;4978466;28;20629;-87
2024/01/15 16:56:04;;;;;;;2.13;1.57;;;1.70;97.30;;;;;;4970566;28;20425;-88
2024/01/15 16:58:29;;;;;;;1.80;1.70;;;1.70;97.30;;;;;;4986933;28;20272;-88
2024/01/15 17:00:55;;;;;;;1.30;1.20;;;1.70;97.30;;;;;;4979269;28;21034;-87
2024/01/15 17:03:21;;;;;;;1.13;1.10;;;1.70;97.30;;;;;;4977284;28;20268;-87
2024/01/15 17:05:46;;;;;;;0.90;0.80;;;1.70;97.30;;;;;;4981894;28;20199;-87
2024/01/15 17:08:12;;;;;;;1.60;1.50;;;1.70;97.30;;;;;;4976294;28;20178;-88
2024/01/15 17:10:37;;;;;;;2.70;2.50;;;1.70;97.30;;;;;;4972439;28;20676;-87
2024/01/15 17:13:03;;;;;;;2.33;2.13;;;1.70;97.30;;;;;;4977589;28;20305;-88
2024/01/15 17:15:30;;;;;;;1.07;1.00;;;1.70;97.30;;;;;;4970648;28;20194;-88
2024/01/15 17:17:55;;;;;;;1.10;1.00;;;1.70;97.30;;;;;;4971825;28;20834;-87
2024/01/15 17:20:21;;;;;;;1.10;1.00;;;1.70;97.30;;;;;;4976973;28;20449;-88
2024/01/15 17:22:46;;;;;;;3.97;2.60;;;1.70;97.30;;;;;;4972137;28;20290;-88
2024/01/15 17:25:14;;;;;;;1.53;1.30;;;1.70;97.30;;;;;;4971594;28;20187;-88
2024/01/15 17:27:41;;;;;;;3.70;1.30;;;1.70;97.30;;;;;;4970135;28;20187;-88
2024/01/15 17:30:07;;;;;;;3.30;2.10;;;1.70;97.30;;;;;;4977152;28;20453;-88
2024/01/15 17:32:35;;;;;;;1.00;0.90;;;1.60;97.30;;;;;;4986635;28;20461;-88
2024/01/15 17:35:01;;;;;;;1.40;1.30;;;1.70;97.30;;;;;;4982323;28;20418;-87
2024/01/15 17:37:27;;;;;;;1.30;1.20;;;1.70;97.30;;;;;;4974240;28;20410;-87
2024/01/15 17:39:52;;;;;;;1.23;1.13;;;1.70;97.30;;;;;;4984756;28;20206;-87
2024/01/15 17:42:18;;;;;;;1.17;1.07;;;1.70;97.30;;;;;;4993679;28;20189;-87
2024/01/15 17:44:44;;;;;;;1.67;1.57;;;1.70;97.30;;;;;;4976375;28;20430;-87
2024/01/15 17:47:10;;;;;;;1.90;1.80;;;1.70;97.30;;;;;;4987414;28;20295;-88
2024/01/15 17:49:36;;;;;;;1.10;1.00;;;1.70;97.30;;;;;;4984790;28;20999;-87
2024/01/15 17:52:02;;;;;;;1.30;1.20;;;1.70;97.30;;;;;;4977814;28;20220;-88
2024/01/15 17:54:28;;;;;;;1.10;1.00;;;1.70;97.30;;;;;;4985248;28;20182;-87
2024/01/15 17:56:54;;;;;;;1.53;1.10;;;1.70;97.30;;;;;;4974615;28;20862;-88
2024/01/15 17:59:20;;;;;;;0.90;0.80;;;1.70;97.30;;;;;;4974475;28;20545;-88
2024/01/15 18:01:46;;;;;;;4.83;2.50;;;1.70;97.30;;;;;;4975372;28;20944;-88